sensor_id;sensor_type;location;lat;lon;timestamp;P1;durP1;ratioP1;P2;durP2;ratioP2
47960;SDS011;33721;48.852;9.936;2022-10-17T00:01:36;9.45;;;3.28;;
47960;SDS011;33721;48.852;9.936;2022-10-17T00:04:01;22.27;;;3.30;;
47960;SDS011;33721;48.852;9.936;2022-10-17T00:06:27;14.52;;;3.38;;
47960;SDS011;33721;48.852;9.936;2022-10-17T00:08:53;11.80;;;3.40;;
47960;SDS011;33721;48.852;9.936;2022-10-17T00:11:20;12.68;;;3.40;;
47960;SDS011;33721;48.852;9.936;2022-10-17T00:13:47;6.32;;;3.03;;
47960;SDS011;33721;48.852;9.936;2022-10-17T00:16:15;12.57;;;3.10;;
47960;SDS011;33721;48.852;9.936;2022-10-17T00:18:48;7.55;;;3.10;;
47960;SDS011;33721;48.852;9.936;2022-10-17T00:21:17;6.95;;;3.17;;
47960;SDS011;33721;48.852;9.936;2022-10-17T00:23:44;7.88;;;2.80;;
47960;SDS011;33721;48.852;9.936;2022-10-17T00:26:10;10.55;;;2.95;;
47960;SDS011;33721;48.852;9.936;2022-10-17T00:28:36;8.57;;;3.47;;
47960;SDS011;33721;48.852;9.936;2022-10-17T00:31:04;10.50;;;3.17;;
47960;SDS011;33721;48.852;9.936;2022-10-17T00:33:31;4.22;;;2.83;;
47960;SDS011;33721;48.852;9.936;2022-10-17T00:36:05;10.68;;;2.90;;
47960;SDS011;33721;48.852;9.936;2022-10-17T00:38:33;10.07;;;2.72;;
47960;SDS011;33721;48.852;9.936;2022-10-17T00:40:59;8.35;;;2.53;;
47960;SDS011;33721;48.852;9.936;2022-10-17T00:43:24;10.45;;;2.83;;
47960;SDS011;33721;48.852;9.936;2022-10-17T00:45:50;4.43;;;2.67;;
47960;SDS011;33721;48.852;9.936;2022-10-17T00:48:16;5.50;;;2.83;;
47960;SDS011;33721;48.852;9.936;2022-10-17T00:50:43;7.85;;;3.13;;
47960;SDS011;33721;48.852;9.936;2022-10-17T00:53:12;11.88;;;3.22;;
47960;SDS011;33721;48.852;9.936;2022-10-17T00:55:49;5.78;;;2.85;;
47960;SDS011;33721;48.852;9.936;2022-10-17T00:58:16;6.93;;;2.65;;
47960;SDS011;33721;48.852;9.936;2022-10-17T01:00:45;7.63;;;2.85;;
47960;SDS011;33721;48.852;9.936;2022-10-17T01:03:12;5.30;;;2.88;;
47960;SDS011;33721;48.852;9.936;2022-10-17T01:05:38;9.52;;;2.67;;
47960;SDS011;33721;48.852;9.936;2022-10-17T01:08:05;17.23;;;3.20;;
47960;SDS011;33721;48.852;9.936;2022-10-17T01:10:40;15.65;;;2.72;;
47960;SDS011;33721;48.852;9.936;2022-10-17T01:13:33;5.18;;;2.83;;
47960;SDS011;33721;48.852;9.936;2022-10-17T01:19:20;7.68;;;2.70;;
47960;SDS011;33721;48.852;9.936;2022-10-17T01:29:49;8.75;;;2.50;;
47960;SDS011;33721;48.852;9.936;2022-10-17T01:32:44;6.40;;;2.55;;
47960;SDS011;33721;48.852;9.936;2022-10-17T01:35:32;5.75;;;2.60;;
47960;SDS011;33721;48.852;9.936;2022-10-17T01:41:23;4.97;;;2.80;;
47960;SDS011;33721;48.852;9.936;2022-10-17T01:43:54;6.35;;;2.22;;
47960;SDS011;33721;48.852;9.936;2022-10-17T01:46:35;3.63;;;2.42;;
47960;SDS011;33721;48.852;9.936;2022-10-17T01:49:06;7.95;;;2.95;;
47960;SDS011;33721;48.852;9.936;2022-10-17T01:54:38;7.43;;;2.60;;
47960;SDS011;33721;48.852;9.936;2022-10-17T01:57:06;9.60;;;2.58;;
47960;SDS011;33721;48.852;9.936;2022-10-17T01:59:39;5.03;;;2.35;;
47960;SDS011;33721;48.852;9.936;2022-10-17T02:02:08;6.32;;;2.55;;
47960;SDS011;33721;48.852;9.936;2022-10-17T02:04:35;6.50;;;2.47;;
47960;SDS011;33721;48.852;9.936;2022-10-17T02:07:08;7.00;;;2.40;;
47960;SDS011;33721;48.852;9.936;2022-10-17T02:09:35;10.20;;;2.63;;
47960;SDS011;33721;48.852;9.936;2022-10-17T02:12:10;13.10;;;2.67;;
47960;SDS011;33721;48.852;9.936;2022-10-17T02:15:05;15.27;;;3.08;;
47960;SDS011;33721;48.852;9.936;2022-10-17T02:23:19;3.90;;;2.17;;
47960;SDS011;33721;48.852;9.936;2022-10-17T02:26:02;8.05;;;2.20;;
47960;SDS011;33721;48.852;9.936;2022-10-17T02:31:16;9.65;;;2.80;;
47960;SDS011;33721;48.852;9.936;2022-10-17T02:33:57;9.98;;;2.40;;
47960;SDS011;33721;48.852;9.936;2022-10-17T02:36:29;6.85;;;2.30;;
47960;SDS011;33721;48.852;9.936;2022-10-17T02:39:00;5.90;;;2.25;;
47960;SDS011;33721;48.852;9.936;2022-10-17T02:41:28;5.88;;;2.60;;
47960;SDS011;33721;48.852;9.936;2022-10-17T02:43:55;6.45;;;2.50;;
47960;SDS011;33721;48.852;9.936;2022-10-17T02:46:21;9.13;;;2.42;;
47960;SDS011;33721;48.852;9.936;2022-10-17T02:51:26;6.57;;;2.28;;
47960;SDS011;33721;48.852;9.936;2022-10-17T02:59:39;5.78;;;2.10;;
47960;SDS011;33721;48.852;9.936;2022-10-17T03:02:09;7.03;;;2.10;;
47960;SDS011;33721;48.852;9.936;2022-10-17T03:04:35;6.60;;;2.20;;
47960;SDS011;33721;48.852;9.936;2022-10-17T03:07:01;5.65;;;2.38;;
47960;SDS011;33721;48.852;9.936;2022-10-17T03:09:27;5.57;;;2.15;;
47960;SDS011;33721;48.852;9.936;2022-10-17T03:11:53;6.82;;;2.42;;
47960;SDS011;33721;48.852;9.936;2022-10-17T03:14:19;7.57;;;2.58;;
47960;SDS011;33721;48.852;9.936;2022-10-17T03:16:44;5.30;;;2.30;;
47960;SDS011;33721;48.852;9.936;2022-10-17T03:19:10;9.18;;;2.63;;
47960;SDS011;33721;48.852;9.936;2022-10-17T03:21:37;14.63;;;3.85;;
47960;SDS011;33721;48.852;9.936;2022-10-17T03:24:03;8.75;;;2.47;;
47960;SDS011;33721;48.852;9.936;2022-10-17T03:26:29;9.77;;;2.40;;
47960;SDS011;33721;48.852;9.936;2022-10-17T03:28:55;9.00;;;2.20;;
47960;SDS011;33721;48.852;9.936;2022-10-17T03:31:21;12.32;;;2.35;;
47960;SDS011;33721;48.852;9.936;2022-10-17T03:33:46;3.78;;;2.00;;
47960;SDS011;33721;48.852;9.936;2022-10-17T03:36:13;4.25;;;2.15;;
47960;SDS011;33721;48.852;9.936;2022-10-17T03:38:40;5.90;;;2.13;;
47960;SDS011;33721;48.852;9.936;2022-10-17T03:41:06;9.13;;;2.30;;
47960;SDS011;33721;48.852;9.936;2022-10-17T03:43:32;10.48;;;2.17;;
47960;SDS011;33721;48.852;9.936;2022-10-17T03:45:59;7.80;;;2.20;;
47960;SDS011;33721;48.852;9.936;2022-10-17T03:48:25;3.75;;;2.15;;
47960;SDS011;33721;48.852;9.936;2022-10-17T03:50:56;6.55;;;2.22;;
47960;SDS011;33721;48.852;9.936;2022-10-17T03:53:27;3.78;;;2.08;;
47960;SDS011;33721;48.852;9.936;2022-10-17T03:55:53;9.55;;;2.00;;
47960;SDS011;33721;48.852;9.936;2022-10-17T03:58:19;7.88;;;2.10;;
47960;SDS011;33721;48.852;9.936;2022-10-17T04:00:44;8.45;;;2.20;;
47960;SDS011;33721;48.852;9.936;2022-10-17T04:03:10;3.33;;;1.90;;
47960;SDS011;33721;48.852;9.936;2022-10-17T04:05:36;11.68;;;2.70;;
47960;SDS011;33721;48.852;9.936;2022-10-17T04:08:01;5.43;;;2.30;;
47960;SDS011;33721;48.852;9.936;2022-10-17T04:10:27;5.40;;;2.25;;
47960;SDS011;33721;48.852;9.936;2022-10-17T04:12:53;5.40;;;2.20;;
47960;SDS011;33721;48.852;9.936;2022-10-17T04:15:19;8.98;;;1.95;;
47960;SDS011;33721;48.852;9.936;2022-10-17T04:17:44;10.30;;;2.38;;
47960;SDS011;33721;48.852;9.936;2022-10-17T04:20:10;9.48;;;1.80;;
47960;SDS011;33721;48.852;9.936;2022-10-17T04:22:36;5.60;;;1.92;;
47960;SDS011;33721;48.852;9.936;2022-10-17T04:25:02;6.32;;;2.17;;
47960;SDS011;33721;48.852;9.936;2022-10-17T04:27:28;5.18;;;2.10;;
47960;SDS011;33721;48.852;9.936;2022-10-17T04:29:54;4.47;;;2.28;;
47960;SDS011;33721;48.852;9.936;2022-10-17T04:32:19;5.22;;;2.70;;
47960;SDS011;33721;48.852;9.936;2022-10-17T04:34:48;10.05;;;2.17;;
47960;SDS011;33721;48.852;9.936;2022-10-17T04:37:14;8.30;;;2.53;;
47960;SDS011;33721;48.852;9.936;2022-10-17T04:39:40;5.90;;;2.25;;
47960;SDS011;33721;48.852;9.936;2022-10-17T04:42:06;6.28;;;2.33;;
47960;SDS011;33721;48.852;9.936;2022-10-17T04:44:31;8.20;;;3.17;;
47960;SDS011;33721;48.852;9.936;2022-10-17T04:46:59;5.88;;;2.60;;
47960;SDS011;33721;48.852;9.936;2022-10-17T04:49:24;8.73;;;2.08;;
47960;SDS011;33721;48.852;9.936;2022-10-17T04:51:50;4.07;;;2.13;;
47960;SDS011;33721;48.852;9.936;2022-10-17T04:54:16;10.68;;;2.10;;
47960;SDS011;33721;48.852;9.936;2022-10-17T04:56:41;3.42;;;2.10;;
47960;SDS011;33721;48.852;9.936;2022-10-17T04:59:07;5.90;;;2.05;;
47960;SDS011;33721;48.852;9.936;2022-10-17T05:01:32;6.80;;;2.47;;
47960;SDS011;33721;48.852;9.936;2022-10-17T05:03:58;9.45;;;2.42;;
47960;SDS011;33721;48.852;9.936;2022-10-17T05:06:24;6.43;;;2.13;;
47960;SDS011;33721;48.852;9.936;2022-10-17T05:08:52;4.97;;;2.60;;
47960;SDS011;33721;48.852;9.936;2022-10-17T05:11:19;11.70;;;2.63;;
47960;SDS011;33721;48.852;9.936;2022-10-17T05:13:52;9.32;;;3.40;;
47960;SDS011;33721;48.852;9.936;2022-10-17T05:16:23;12.15;;;3.10;;
47960;SDS011;33721;48.852;9.936;2022-10-17T05:18:50;7.07;;;2.78;;
47960;SDS011;33721;48.852;9.936;2022-10-17T05:21:17;8.50;;;3.30;;
47960;SDS011;33721;48.852;9.936;2022-10-17T05:23:43;5.65;;;3.20;;
47960;SDS011;33721;48.852;9.936;2022-10-17T05:26:09;7.82;;;2.63;;
47960;SDS011;33721;48.852;9.936;2022-10-17T05:28:34;11.55;;;3.10;;
47960;SDS011;33721;48.852;9.936;2022-10-17T05:31:01;8.82;;;2.60;;
47960;SDS011;33721;48.852;9.936;2022-10-17T05:33:28;4.00;;;2.55;;
47960;SDS011;33721;48.852;9.936;2022-10-17T05:35:53;7.50;;;2.58;;
47960;SDS011;33721;48.852;9.936;2022-10-17T05:38:19;10.50;;;3.10;;
47960;SDS011;33721;48.852;9.936;2022-10-17T05:40:45;4.80;;;2.53;;
47960;SDS011;33721;48.852;9.936;2022-10-17T05:43:10;6.85;;;2.65;;
47960;SDS011;33721;48.852;9.936;2022-10-17T05:45:36;8.40;;;2.45;;
47960;SDS011;33721;48.852;9.936;2022-10-17T05:48:02;7.82;;;2.30;;
47960;SDS011;33721;48.852;9.936;2022-10-17T05:50:28;15.63;;;3.13;;
47960;SDS011;33721;48.852;9.936;2022-10-17T05:52:53;13.18;;;4.28;;
47960;SDS011;33721;48.852;9.936;2022-10-17T05:55:19;10.70;;;3.85;;
47960;SDS011;33721;48.852;9.936;2022-10-17T05:57:45;10.15;;;4.38;;
47960;SDS011;33721;48.852;9.936;2022-10-17T06:00:11;8.80;;;4.75;;
47960;SDS011;33721;48.852;9.936;2022-10-17T06:02:37;13.00;;;5.38;;
47960;SDS011;33721;48.852;9.936;2022-10-17T06:05:03;17.58;;;4.63;;
47960;SDS011;33721;48.852;9.936;2022-10-17T06:07:29;13.52;;;4.30;;
47960;SDS011;33721;48.852;9.936;2022-10-17T06:09:54;7.68;;;4.03;;
47960;SDS011;33721;48.852;9.936;2022-10-17T06:12:22;13.98;;;4.43;;
47960;SDS011;33721;48.852;9.936;2022-10-17T06:14:47;9.88;;;5.13;;
47960;SDS011;33721;48.852;9.936;2022-10-17T06:17:13;17.15;;;4.88;;
47960;SDS011;33721;48.852;9.936;2022-10-17T06:19:38;12.35;;;4.82;;
47960;SDS011;33721;48.852;9.936;2022-10-17T06:22:05;15.77;;;5.18;;
47960;SDS011;33721;48.852;9.936;2022-10-17T06:24:31;11.57;;;4.55;;
47960;SDS011;33721;48.852;9.936;2022-10-17T06:26:57;11.30;;;3.90;;
47960;SDS011;33721;48.852;9.936;2022-10-17T06:29:23;14.02;;;4.38;;
47960;SDS011;33721;48.852;9.936;2022-10-17T06:31:48;11.65;;;4.32;;
47960;SDS011;33721;48.852;9.936;2022-10-17T06:34:14;8.52;;;4.20;;
47960;SDS011;33721;48.852;9.936;2022-10-17T06:36:40;13.50;;;4.60;;
47960;SDS011;33721;48.852;9.936;2022-10-17T06:39:05;10.55;;;4.93;;
47960;SDS011;33721;48.852;9.936;2022-10-17T06:41:31;15.93;;;5.35;;
47960;SDS011;33721;48.852;9.936;2022-10-17T06:43:56;8.05;;;4.13;;
47960;SDS011;33721;48.852;9.936;2022-10-17T06:46:22;12.95;;;4.60;;
47960;SDS011;33721;48.852;9.936;2022-10-17T06:48:50;18.55;;;4.85;;
47960;SDS011;33721;48.852;9.936;2022-10-17T06:51:17;25.42;;;5.13;;
47960;SDS011;33721;48.852;9.936;2022-10-17T06:53:42;12.82;;;5.38;;
47960;SDS011;33721;48.852;9.936;2022-10-17T06:56:08;14.85;;;4.30;;
47960;SDS011;33721;48.852;9.936;2022-10-17T06:58:35;13.15;;;4.75;;
47960;SDS011;33721;48.852;9.936;2022-10-17T07:01:04;10.93;;;4.40;;
47960;SDS011;33721;48.852;9.936;2022-10-17T07:03:32;10.43;;;4.35;;
47960;SDS011;33721;48.852;9.936;2022-10-17T07:05:58;15.88;;;4.38;;
47960;SDS011;33721;48.852;9.936;2022-10-17T07:08:24;11.15;;;4.30;;
47960;SDS011;33721;48.852;9.936;2022-10-17T07:10:50;15.27;;;3.80;;
47960;SDS011;33721;48.852;9.936;2022-10-17T07:13:17;7.43;;;3.65;;
47960;SDS011;33721;48.852;9.936;2022-10-17T07:15:43;16.88;;;5.22;;
47960;SDS011;33721;48.852;9.936;2022-10-17T07:18:09;11.45;;;3.65;;
47960;SDS011;33721;48.852;9.936;2022-10-17T07:20:35;9.38;;;3.80;;
47960;SDS011;33721;48.852;9.936;2022-10-17T07:23:01;13.27;;;3.80;;
47960;SDS011;33721;48.852;9.936;2022-10-17T07:25:27;14.77;;;3.90;;
47960;SDS011;33721;48.852;9.936;2022-10-17T07:27:53;15.10;;;3.75;;
47960;SDS011;33721;48.852;9.936;2022-10-17T07:30:19;10.48;;;3.42;;
47960;SDS011;33721;48.852;9.936;2022-10-17T07:32:45;13.93;;;3.63;;
47960;SDS011;33721;48.852;9.936;2022-10-17T07:35:11;10.30;;;3.60;;
47960;SDS011;33721;48.852;9.936;2022-10-17T07:37:37;8.70;;;4.10;;
47960;SDS011;33721;48.852;9.936;2022-10-17T07:40:04;9.38;;;3.75;;
47960;SDS011;33721;48.852;9.936;2022-10-17T07:42:31;7.47;;;2.95;;
47960;SDS011;33721;48.852;9.936;2022-10-17T07:44:59;10.85;;;3.60;;
47960;SDS011;33721;48.852;9.936;2022-10-17T07:47:25;13.27;;;3.17;;
47960;SDS011;33721;48.852;9.936;2022-10-17T07:49:51;16.92;;;3.50;;
47960;SDS011;33721;48.852;9.936;2022-10-17T07:52:16;7.28;;;2.78;;
47960;SDS011;33721;48.852;9.936;2022-10-17T07:54:42;30.52;;;3.53;;
47960;SDS011;33721;48.852;9.936;2022-10-17T07:57:08;6.75;;;2.95;;
47960;SDS011;33721;48.852;9.936;2022-10-17T07:59:34;12.77;;;3.30;;
47960;SDS011;33721;48.852;9.936;2022-10-17T08:02:02;10.52;;;3.10;;
47960;SDS011;33721;48.852;9.936;2022-10-17T08:04:28;14.60;;;3.30;;
47960;SDS011;33721;48.852;9.936;2022-10-17T08:06:54;5.15;;;2.95;;
47960;SDS011;33721;48.852;9.936;2022-10-17T08:09:20;6.60;;;2.83;;
47960;SDS011;33721;48.852;9.936;2022-10-17T08:11:45;14.20;;;3.65;;
47960;SDS011;33721;48.852;9.936;2022-10-17T08:14:12;5.93;;;3.22;;
47960;SDS011;33721;48.852;9.936;2022-10-17T08:16:38;8.13;;;3.20;;
47960;SDS011;33721;48.852;9.936;2022-10-17T08:19:04;7.00;;;2.92;;
47960;SDS011;33721;48.852;9.936;2022-10-17T08:21:32;6.63;;;3.00;;
47960;SDS011;33721;48.852;9.936;2022-10-17T08:23:58;11.75;;;3.70;;
47960;SDS011;33721;48.852;9.936;2022-10-17T08:26:26;7.13;;;2.85;;
47960;SDS011;33721;48.852;9.936;2022-10-17T08:28:51;11.50;;;3.30;;
47960;SDS011;33721;48.852;9.936;2022-10-17T08:31:17;9.57;;;3.25;;
47960;SDS011;33721;48.852;9.936;2022-10-17T08:33:44;11.32;;;3.65;;
47960;SDS011;33721;48.852;9.936;2022-10-17T08:36:12;16.05;;;3.13;;
47960;SDS011;33721;48.852;9.936;2022-10-17T08:38:39;11.50;;;3.30;;
47960;SDS011;33721;48.852;9.936;2022-10-17T08:44:13;10.82;;;3.25;;
47960;SDS011;33721;48.852;9.936;2022-10-17T08:46:45;7.78;;;3.03;;
47960;SDS011;33721;48.852;9.936;2022-10-17T08:54:52;8.45;;;3.55;;
47960;SDS011;33721;48.852;9.936;2022-10-17T08:57:18;10.27;;;4.13;;
47960;SDS011;33721;48.852;9.936;2022-10-17T08:59:44;11.30;;;5.18;;
47960;SDS011;33721;48.852;9.936;2022-10-17T09:10:57;10.52;;;3.17;;
47960;SDS011;33721;48.852;9.936;2022-10-17T09:13:49;8.02;;;3.00;;
47960;SDS011;33721;48.852;9.936;2022-10-17T09:19:19;6.55;;;2.80;;
47960;SDS011;33721;48.852;9.936;2022-10-17T09:21:57;7.75;;;2.50;;
47960;SDS011;33721;48.852;9.936;2022-10-17T09:24:47;15.48;;;2.90;;
47960;SDS011;33721;48.852;9.936;2022-10-17T09:27:23;9.90;;;2.72;;
47960;SDS011;33721;48.852;9.936;2022-10-17T09:30:22;5.25;;;2.80;;
47960;SDS011;33721;48.852;9.936;2022-10-17T09:33:13;10.02;;;2.97;;
47960;SDS011;33721;48.852;9.936;2022-10-17T09:35:40;7.10;;;2.85;;
47960;SDS011;33721;48.852;9.936;2022-10-17T09:38:16;7.68;;;2.80;;
47960;SDS011;33721;48.852;9.936;2022-10-17T09:40:44;10.23;;;2.40;;
47960;SDS011;33721;48.852;9.936;2022-10-17T09:43:18;7.90;;;2.58;;
47960;SDS011;33721;48.852;9.936;2022-10-17T09:48:30;5.72;;;2.30;;
47960;SDS011;33721;48.852;9.936;2022-10-17T09:51:02;5.28;;;2.22;;
47960;SDS011;33721;48.852;9.936;2022-10-17T09:53:30;4.85;;;2.60;;
47960;SDS011;33721;48.852;9.936;2022-10-17T09:56:01;6.50;;;2.42;;
47960;SDS011;33721;48.852;9.936;2022-10-17T10:01:20;3.60;;;2.33;;
47960;SDS011;33721;48.852;9.936;2022-10-17T10:03:46;4.00;;;2.38;;
47960;SDS011;33721;48.852;9.936;2022-10-17T10:06:13;3.25;;;2.20;;
47960;SDS011;33721;48.852;9.936;2022-10-17T10:08:53;4.70;;;2.40;;
47960;SDS011;33721;48.852;9.936;2022-10-17T10:14:50;7.50;;;2.58;;
47960;SDS011;33721;48.852;9.936;2022-10-17T10:17:02;7.53;;;2.40;;
47960;SDS011;33721;48.852;9.936;2022-10-17T10:19:29;5.63;;;2.30;;
47960;SDS011;33721;48.852;9.936;2022-10-17T10:21:58;9.80;;;2.80;;
47960;SDS011;33721;48.852;9.936;2022-10-17T10:24:38;3.65;;;2.03;;
47960;SDS011;33721;48.852;9.936;2022-10-17T10:27:04;4.32;;;2.28;;
47960;SDS011;33721;48.852;9.936;2022-10-17T10:29:36;8.90;;;2.58;;
47960;SDS011;33721;48.852;9.936;2022-10-17T10:32:15;8.37;;;2.30;;
47960;SDS011;33721;48.852;9.936;2022-10-17T10:34:48;6.85;;;2.42;;
47960;SDS011;33721;48.852;9.936;2022-10-17T10:37:19;7.15;;;2.78;;
47960;SDS011;33721;48.852;9.936;2022-10-17T10:39:57;4.47;;;2.83;;
47960;SDS011;33721;48.852;9.936;2022-10-17T10:42:36;7.75;;;2.97;;
47960;SDS011;33721;48.852;9.936;2022-10-17T10:55:49;4.00;;;2.10;;
47960;SDS011;33721;48.852;9.936;2022-10-17T11:01:50;8.10;;;2.50;;
47960;SDS011;33721;48.852;9.936;2022-10-17T11:04:13;10.80;;;2.63;;
47960;SDS011;33721;48.852;9.936;2022-10-17T11:06:42;6.45;;;2.80;;
47960;SDS011;33721;48.852;9.936;2022-10-17T11:09:14;3.60;;;2.42;;
47960;SDS011;33721;48.852;9.936;2022-10-17T11:11:58;5.75;;;2.58;;
47960;SDS011;33721;48.852;9.936;2022-10-17T11:17:22;9.98;;;2.42;;
47960;SDS011;33721;48.852;9.936;2022-10-17T11:22:46;5.32;;;2.20;;
47960;SDS011;33721;48.852;9.936;2022-10-17T11:25:19;4.15;;;2.35;;
47960;SDS011;33721;48.852;9.936;2022-10-17T11:27:58;3.67;;;1.98;;
47960;SDS011;33721;48.852;9.936;2022-10-17T11:30:26;4.10;;;1.70;;
47960;SDS011;33721;48.852;9.936;2022-10-17T11:33:00;2.95;;;1.60;;
47960;SDS011;33721;48.852;9.936;2022-10-17T11:35:29;3.15;;;1.85;;
47960;SDS011;33721;48.852;9.936;2022-10-17T11:38:09;6.20;;;2.25;;
47960;SDS011;33721;48.852;9.936;2022-10-17T11:40:58;5.03;;;2.10;;
47960;SDS011;33721;48.852;9.936;2022-10-17T11:45:54;4.50;;;1.73;;
47960;SDS011;33721;48.852;9.936;2022-10-17T11:48:40;5.68;;;3.08;;
47960;SDS011;33721;48.852;9.936;2022-10-17T11:51:13;8.90;;;2.50;;
47960;SDS011;33721;48.852;9.936;2022-10-17T11:53:47;10.43;;;3.38;;
47960;SDS011;33721;48.852;9.936;2022-10-17T11:56:20;6.47;;;4.00;;
47960;SDS011;33721;48.852;9.936;2022-10-17T12:01:45;8.57;;;3.72;;
47960;SDS011;33721;48.852;9.936;2022-10-17T12:07:19;6.03;;;2.55;;
47960;SDS011;33721;48.852;9.936;2022-10-17T12:16:35;5.35;;;1.90;;
47960;SDS011;33721;48.852;9.936;2022-10-17T12:18:43;8.55;;;2.10;;
47960;SDS011;33721;48.852;9.936;2022-10-17T12:21:10;5.53;;;1.90;;
47960;SDS011;33721;48.852;9.936;2022-10-17T12:23:35;3.85;;;1.67;;
47960;SDS011;33721;48.852;9.936;2022-10-17T12:26:07;5.45;;;1.90;;
47960;SDS011;33721;48.852;9.936;2022-10-17T12:31:06;4.53;;;1.80;;
47960;SDS011;33721;48.852;9.936;2022-10-17T12:54:55;8.10;;;1.45;;
47960;SDS011;33721;48.852;9.936;2022-10-17T13:02:59;8.73;;;1.75;;
47960;SDS011;33721;48.852;9.936;2022-10-17T13:05:33;3.53;;;1.73;;
47960;SDS011;33721;48.852;9.936;2022-10-17T13:08:01;4.45;;;1.48;;
47960;SDS011;33721;48.852;9.936;2022-10-17T13:10:31;3.88;;;1.77;;
47960;SDS011;33721;48.852;9.936;2022-10-17T13:13:18;9.95;;;1.40;;
47960;SDS011;33721;48.852;9.936;2022-10-17T13:15:50;4.07;;;1.50;;
47960;SDS011;33721;48.852;9.936;2022-10-17T13:18:22;6.57;;;1.85;;
47960;SDS011;33721;48.852;9.936;2022-10-17T13:20:57;8.15;;;1.95;;
47960;SDS011;33721;48.852;9.936;2022-10-17T13:26:14;4.10;;;1.50;;
47960;SDS011;33721;48.852;9.936;2022-10-17T13:28:45;13.50;;;1.35;;
47960;SDS011;33721;48.852;9.936;2022-10-17T13:31:36;5.28;;;1.60;;
47960;SDS011;33721;48.852;9.936;2022-10-17T13:34:04;6.40;;;1.52;;
47960;SDS011;33721;48.852;9.936;2022-10-17T13:36:38;7.78;;;1.70;;
47960;SDS011;33721;48.852;9.936;2022-10-17T13:39:07;6.05;;;1.83;;
47960;SDS011;33721;48.852;9.936;2022-10-17T13:41:37;4.00;;;1.58;;
47960;SDS011;33721;48.852;9.936;2022-10-17T13:44:15;6.65;;;2.00;;
47960;SDS011;33721;48.852;9.936;2022-10-17T13:46:44;4.53;;;1.58;;
47960;SDS011;33721;48.852;9.936;2022-10-17T13:49:21;11.55;;;1.50;;
47960;SDS011;33721;48.852;9.936;2022-10-17T13:51:52;6.80;;;1.75;;
47960;SDS011;33721;48.852;9.936;2022-10-17T13:54:36;5.18;;;1.63;;
47960;SDS011;33721;48.852;9.936;2022-10-17T13:57:04;8.10;;;1.98;;
47960;SDS011;33721;48.852;9.936;2022-10-17T13:59:41;3.72;;;1.50;;
47960;SDS011;33721;48.852;9.936;2022-10-17T14:02:13;6.05;;;1.85;;
47960;SDS011;33721;48.852;9.936;2022-10-17T14:04:44;3.15;;;1.58;;
47960;SDS011;33721;48.852;9.936;2022-10-17T14:07:18;10.75;;;1.75;;
47960;SDS011;33721;48.852;9.936;2022-10-17T14:09:50;9.25;;;1.98;;
47960;SDS011;33721;48.852;9.936;2022-10-17T14:12:15;8.38;;;1.67;;
47960;SDS011;33721;48.852;9.936;2022-10-17T14:14:46;9.20;;;1.98;;
47960;SDS011;33721;48.852;9.936;2022-10-17T14:17:16;5.65;;;1.70;;
47960;SDS011;33721;48.852;9.936;2022-10-17T14:20:00;10.38;;;1.80;;
47960;SDS011;33721;48.852;9.936;2022-10-17T14:22:28;8.00;;;1.90;;
47960;SDS011;33721;48.852;9.936;2022-10-17T14:24:57;8.25;;;2.13;;
47960;SDS011;33721;48.852;9.936;2022-10-17T14:27:27;7.80;;;2.08;;
47960;SDS011;33721;48.852;9.936;2022-10-17T14:29:56;8.32;;;1.90;;
47960;SDS011;33721;48.852;9.936;2022-10-17T14:32:25;8.35;;;2.28;;
47960;SDS011;33721;48.852;9.936;2022-10-17T14:34:53;7.20;;;2.40;;
47960;SDS011;33721;48.852;9.936;2022-10-17T14:37:28;10.73;;;2.35;;
47960;SDS011;33721;48.852;9.936;2022-10-17T14:40:13;7.28;;;2.22;;
47960;SDS011;33721;48.852;9.936;2022-10-17T14:42:41;12.45;;;2.10;;
47960;SDS011;33721;48.852;9.936;2022-10-17T14:45:10;8.23;;;2.42;;
47960;SDS011;33721;48.852;9.936;2022-10-17T14:47:40;5.32;;;1.98;;
47960;SDS011;33721;48.852;9.936;2022-10-17T14:50:16;7.88;;;2.17;;
47960;SDS011;33721;48.852;9.936;2022-10-17T14:52:59;7.57;;;2.40;;
47960;SDS011;33721;48.852;9.936;2022-10-17T14:55:30;10.60;;;1.95;;
47960;SDS011;33721;48.852;9.936;2022-10-17T14:57:58;10.57;;;1.95;;
47960;SDS011;33721;48.852;9.936;2022-10-17T15:00:24;4.40;;;2.15;;
47960;SDS011;33721;48.852;9.936;2022-10-17T15:02:50;6.43;;;2.40;;
47960;SDS011;33721;48.852;9.936;2022-10-17T15:05:17;8.60;;;2.05;;
47960;SDS011;33721;48.852;9.936;2022-10-17T15:07:44;4.07;;;1.90;;
47960;SDS011;33721;48.852;9.936;2022-10-17T15:10:43;6.35;;;2.15;;
47960;SDS011;33721;48.852;9.936;2022-10-17T15:13:05;6.90;;;2.03;;
47960;SDS011;33721;48.852;9.936;2022-10-17T15:15:32;6.95;;;2.53;;
47960;SDS011;33721;48.852;9.936;2022-10-17T15:17:58;8.02;;;2.35;;
47960;SDS011;33721;48.852;9.936;2022-10-17T15:20:24;5.47;;;2.42;;
47960;SDS011;33721;48.852;9.936;2022-10-17T15:22:55;7.68;;;2.80;;
47960;SDS011;33721;48.852;9.936;2022-10-17T15:25:22;6.55;;;2.38;;
47960;SDS011;33721;48.852;9.936;2022-10-17T15:27:48;8.77;;;2.67;;
47960;SDS011;33721;48.852;9.936;2022-10-17T15:30:35;15.07;;;3.00;;
47960;SDS011;33721;48.852;9.936;2022-10-17T15:33:01;6.18;;;2.60;;
47960;SDS011;33721;48.852;9.936;2022-10-17T15:35:27;6.03;;;2.40;;
47960;SDS011;33721;48.852;9.936;2022-10-17T15:37:52;9.63;;;2.42;;
47960;SDS011;33721;48.852;9.936;2022-10-17T15:40:19;4.30;;;2.17;;
47960;SDS011;33721;48.852;9.936;2022-10-17T15:42:47;6.50;;;2.10;;
47960;SDS011;33721;48.852;9.936;2022-10-17T15:45:13;3.80;;;2.45;;
47960;SDS011;33721;48.852;9.936;2022-10-17T15:47:41;4.63;;;2.13;;
47960;SDS011;33721;48.852;9.936;2022-10-17T15:50:14;16.70;;;2.60;;
47960;SDS011;33721;48.852;9.936;2022-10-17T15:52:40;7.25;;;2.53;;
47960;SDS011;33721;48.852;9.936;2022-10-17T15:55:07;6.07;;;2.75;;
47960;SDS011;33721;48.852;9.936;2022-10-17T15:57:38;9.60;;;2.50;;
47960;SDS011;33721;48.852;9.936;2022-10-17T16:00:07;12.40;;;2.65;;
47960;SDS011;33721;48.852;9.936;2022-10-17T16:02:41;5.85;;;2.58;;
47960;SDS011;33721;48.852;9.936;2022-10-17T16:05:13;8.90;;;3.33;;
47960;SDS011;33721;48.852;9.936;2022-10-17T16:07:42;7.88;;;2.67;;
47960;SDS011;33721;48.852;9.936;2022-10-17T16:10:10;6.93;;;3.00;;
47960;SDS011;33721;48.852;9.936;2022-10-17T16:12:36;10.18;;;3.30;;
47960;SDS011;33721;48.852;9.936;2022-10-17T16:15:06;7.00;;;2.85;;
47960;SDS011;33721;48.852;9.936;2022-10-17T16:17:42;9.38;;;3.75;;
47960;SDS011;33721;48.852;9.936;2022-10-17T16:20:09;12.85;;;3.00;;
47960;SDS011;33721;48.852;9.936;2022-10-17T16:22:36;12.15;;;2.90;;
47960;SDS011;33721;48.852;9.936;2022-10-17T16:25:03;8.85;;;3.10;;
47960;SDS011;33721;48.852;9.936;2022-10-17T16:27:37;10.48;;;3.08;;
47960;SDS011;33721;48.852;9.936;2022-10-17T16:30:04;10.38;;;3.00;;
47960;SDS011;33721;48.852;9.936;2022-10-17T16:32:31;9.15;;;3.40;;
47960;SDS011;33721;48.852;9.936;2022-10-17T16:34:57;6.68;;;3.28;;
47960;SDS011;33721;48.852;9.936;2022-10-17T16:37:24;8.35;;;3.10;;
47960;SDS011;33721;48.852;9.936;2022-10-17T16:39:50;7.03;;;3.00;;
47960;SDS011;33721;48.852;9.936;2022-10-17T16:42:18;9.68;;;3.00;;
47960;SDS011;33721;48.852;9.936;2022-10-17T16:44:44;10.27;;;3.65;;
47960;SDS011;33721;48.852;9.936;2022-10-17T16:47:10;7.50;;;3.80;;
47960;SDS011;33721;48.852;9.936;2022-10-17T16:49:36;10.13;;;3.42;;
47960;SDS011;33721;48.852;9.936;2022-10-17T16:52:02;16.67;;;3.80;;
47960;SDS011;33721;48.852;9.936;2022-10-17T16:54:28;10.25;;;3.50;;
47960;SDS011;33721;48.852;9.936;2022-10-17T16:56:54;8.68;;;3.50;;
47960;SDS011;33721;48.852;9.936;2022-10-17T16:59:23;13.48;;;3.80;;
47960;SDS011;33721;48.852;9.936;2022-10-17T17:01:49;7.20;;;3.13;;
47960;SDS011;33721;48.852;9.936;2022-10-17T17:04:14;7.78;;;3.35;;
47960;SDS011;33721;48.852;9.936;2022-10-17T17:06:40;11.32;;;3.95;;